sensor_id;sensor_type;location;lat;lon;timestamp;pressure;altitude;pressure_sealevel;temperature;humidity
55032;BME280;40928;51.076;7.950;2023-06-10T00:02:04;96995.19;;;14.31;100.00
55032;BME280;40928;51.076;7.950;2023-06-10T00:04:30;97002.69;;;14.29;100.00
55032;BME280;40928;51.076;7.950;2023-06-10T00:06:55;96998.09;;;14.24;100.00
55032;BME280;40928;51.076;7.950;2023-06-10T00:09:23;96994.31;;;14.20;100.00
55032;BME280;40928;51.076;7.950;2023-06-10T00:11:49;96994.06;;;14.16;100.00
55032;BME280;40928;51.076;7.950;2023-06-10T00:14:14;96996.47;;;14.18;100.00
55032;BME280;40928;51.076;7.950;2023-06-10T00:16:41;96997.25;;;14.19;100.00
55032;BME280;40928;51.076;7.950;2023-06-10T00:19:10;96991.38;;;14.16;100.00
55032;BME280;40928;51.076;7.950;2023-06-10T00:21:41;96989.16;;;14.08;100.00
55032;BME280;40928;51.076;7.950;2023-06-10T00:24:10;96996.66;;;14.01;100.00
55032;BME280;40928;51.076;7.950;2023-06-10T00:26:41;96991.00;;;13.97;100.00
55032;BME280;40928;51.076;7.950;2023-06-10T00:29:07;96986.44;;;13.98;100.00
55032;BME280;40928;51.076;7.950;2023-06-10T00:31:37;96991.22;;;13.91;100.00
55032;BME280;40928;51.076;7.950;2023-06-10T00:34:06;96996.06;;;13.89;100.00
55032;BME280;40928;51.076;7.950;2023-06-10T00:36:32;96997.38;;;13.86;100.00
55032;BME280;40928;51.076;7.950;2023-06-10T00:38:59;96986.94;;;13.84;100.00
55032;BME280;40928;51.076;7.950;2023-06-10T00:41:25;96990.13;;;13.86;100.00
55032;BME280;40928;51.076;7.950;2023-06-10T00:43:53;96985.88;;;13.85;100.00
55032;BME280;40928;51.076;7.950;2023-06-10T00:46:21;96992.81;;;13.81;100.00
55032;BME280;40928;51.076;7.950;2023-06-10T00:48:48;96998.13;;;13.76;100.00
55032;BME280;40928;51.076;7.950;2023-06-10T00:51:15;96995.47;;;13.76;100.00
55032;BME280;40928;51.076;7.950;2023-06-10T00:53:41;96988.97;;;13.72;100.00
55032;BME280;40928;51.076;7.950;2023-06-10T00:56:07;96994.34;;;13.72;100.00
55032;BME280;40928;51.076;7.950;2023-06-10T00:58:34;96987.38;;;13.71;100.00
55032;BME280;40928;51.076;7.950;2023-06-10T01:01:01;96998.09;;;13.71;100.00
55032;BME280;40928;51.076;7.950;2023-06-10T01:03:27;96993.22;;;13.63;100.00
55032;BME280;40928;51.076;7.950;2023-06-10T01:09:18;96987.59;;;13.59;100.00
55032;BME280;40928;51.076;7.950;2023-06-10T01:12:26;96992.41;;;13.57;100.00
55032;BME280;40928;51.076;7.950;2023-06-10T01:14:54;96992.13;;;13.53;100.00
55032;BME280;40928;51.076;7.950;2023-06-10T01:17:21;96991.28;;;13.53;100.00
55032;BME280;40928;51.076;7.950;2023-06-10T01:19:54;96988.06;;;13.51;100.00
55032;BME280;40928;51.076;7.950;2023-06-10T01:22:26;96992.63;;;13.50;100.00
55032;BME280;40928;51.076;7.950;2023-06-10T01:24:57;96990.19;;;13.49;100.00
55032;BME280;40928;51.076;7.950;2023-06-10T01:27:29;97003.31;;;13.45;100.00
55032;BME280;40928;51.076;7.950;2023-06-10T01:30:00;96998.22;;;13.44;100.00
55032;BME280;40928;51.076;7.950;2023-06-10T01:32:52;96996.28;;;13.39;100.00
55032;BME280;40928;51.076;7.950;2023-06-10T01:35:24;96993.59;;;13.39;100.00
55032;BME280;40928;51.076;7.950;2023-06-10T01:37:53;96997.03;;;13.34;100.00
55032;BME280;40928;51.076;7.950;2023-06-10T01:40:20;97004.53;;;13.32;100.00
55032;BME280;40928;51.076;7.950;2023-06-10T01:42:46;96997.81;;;13.30;100.00
55032;BME280;40928;51.076;7.950;2023-06-10T01:45:12;96996.19;;;13.29;100.00
55032;BME280;40928;51.076;7.950;2023-06-10T01:47:37;97001.56;;;13.29;100.00
55032;BME280;40928;51.076;7.950;2023-06-10T01:50:03;97005.84;;;13.30;100.00
55032;BME280;40928;51.076;7.950;2023-06-10T01:52:29;97006.63;;;13.25;100.00
55032;BME280;40928;51.076;7.950;2023-06-10T01:54:54;97003.66;;;13.21;100.00
55032;BME280;40928;51.076;7.950;2023-06-10T01:57:21;96998.53;;;13.20;100.00
55032;BME280;40928;51.076;7.950;2023-06-10T01:59:47;96992.88;;;13.16;100.00
55032;BME280;40928;51.076;7.950;2023-06-10T02:02:14;97007.63;;;13.19;100.00
55032;BME280;40928;51.076;7.950;2023-06-10T02:04:39;97004.66;;;13.15;100.00
55032;BME280;40928;51.076;7.950;2023-06-10T02:07:06;97002.50;;;13.12;100.00
55032;BME280;40928;51.076;7.950;2023-06-10T02:09:32;97000.31;;;13.09;100.00
55032;BME280;40928;51.076;7.950;2023-06-10T02:12:02;97000.84;;;13.06;100.00
55032;BME280;40928;51.076;7.950;2023-06-10T02:14:27;97007.84;;;13.07;100.00
55032;BME280;40928;51.076;7.950;2023-06-10T02:16:54;97005.38;;;13.05;100.00
55032;BME280;40928;51.076;7.950;2023-06-10T02:19:22;97002.72;;;13.05;100.00
55032;BME280;40928;51.076;7.950;2023-06-10T02:21:50;96999.75;;;13.02;100.00
55032;BME280;40928;51.076;7.950;2023-06-10T02:24:16;97002.91;;;12.99;100.00
55032;BME280;40928;51.076;7.950;2023-06-10T02:26:41;96999.69;;;12.97;100.00
55032;BME280;40928;51.076;7.950;2023-06-10T02:29:07;96996.22;;;12.96;100.00
55032;BME280;40928;51.076;7.950;2023-06-10T02:31:34;97006.66;;;12.98;100.00
55032;BME280;40928;51.076;7.950;2023-06-10T02:34:02;97000.19;;;12.93;100.00
55032;BME280;40928;51.076;7.950;2023-06-10T02:36:29;97012.78;;;12.93;100.00
55032;BME280;40928;51.076;7.950;2023-06-10T02:38:56;97010.38;;;12.91;100.00
55032;BME280;40928;51.076;7.950;2023-06-10T02:41:22;97008.75;;;12.90;100.00
55032;BME280;40928;51.076;7.950;2023-06-10T02:43:50;97009.28;;;12.92;100.00
55032;BME280;40928;51.076;7.950;2023-06-10T02:46:18;96999.91;;;12.90;100.00
55032;BME280;40928;51.076;7.950;2023-06-10T02:48:45;97008.19;;;12.88;100.00
55032;BME280;40928;51.076;7.950;2023-06-10T02:51:13;97016.44;;;12.82;100.00
55032;BME280;40928;51.076;7.950;2023-06-10T02:53:42;97012.16;;;12.81;100.00
55032;BME280;40928;51.076;7.950;2023-06-10T02:56:10;97011.31;;;12.80;100.00
55032;BME280;40928;51.076;7.950;2023-06-10T02:58:36;97015.06;;;12.79;100.00
55032;BME280;40928;51.076;7.950;2023-06-10T03:01:05;97012.34;;;12.74;100.00
55032;BME280;40928;51.076;7.950;2023-06-10T03:03:43;97010.97;;;12.71;100.00
55032;BME280;40928;51.076;7.950;2023-06-10T03:06:11;97018.22;;;12.71;100.00
55032;BME280;40928;51.076;7.950;2023-06-10T03:08:39;97010.94;;;12.66;100.00
55032;BME280;40928;51.076;7.950;2023-06-10T03:11:09;97014.34;;;12.61;100.00
55032;BME280;40928;51.076;7.950;2023-06-10T03:13:36;97000.44;;;12.59;100.00
55032;BME280;40928;51.076;7.950;2023-06-10T03:16:02;97004.16;;;12.58;100.00
55032;BME280;40928;51.076;7.950;2023-06-10T03:18:31;97017.56;;;12.58;100.00
55032;BME280;40928;51.076;7.950;2023-06-10T03:20:58;97006.50;;;12.55;100.00
55032;BME280;40928;51.076;7.950;2023-06-10T03:23:26;97010.00;;;12.55;100.00
55032;BME280;40928;51.076;7.950;2023-06-10T03:25:53;97015.38;;;12.55;100.00
55032;BME280;40928;51.076;7.950;2023-06-10T03:28:20;97013.75;;;12.54;100.00
55032;BME280;40928;51.076;7.950;2023-06-10T03:30:48;97011.06;;;12.54;100.00
55032;BME280;40928;51.076;7.950;2023-06-10T03:33:14;97015.59;;;12.54;100.00
55032;BME280;40928;51.076;7.950;2023-06-10T03:35:42;97015.31;;;12.50;100.00
55032;BME280;40928;51.076;7.950;2023-06-10T03:38:08;97011.00;;;12.49;100.00
55032;BME280;40928;51.076;7.950;2023-06-10T03:40:37;97018.81;;;12.51;100.00
55032;BME280;40928;51.076;7.950;2023-06-10T03:43:04;97016.94;;;12.51;100.00
55032;BME280;40928;51.076;7.950;2023-06-10T03:45:31;97022.84;;;12.53;100.00
55032;BME280;40928;51.076;7.950;2023-06-10T03:47:58;97023.63;;;12.54;100.00
55032;BME280;40928;51.076;7.950;2023-06-10T03:50:30;97022.53;;;12.49;100.00
55032;BME280;40928;51.076;7.950;2023-06-10T03:52:58;97019.31;;;12.47;100.00
55032;BME280;40928;51.076;7.950;2023-06-10T03:55:25;97026.28;;;12.48;100.00
55032;BME280;40928;51.076;7.950;2023-06-10T03:57:53;97021.16;;;12.47;100.00
55032;BME280;40928;51.076;7.950;2023-06-10T04:00:19;97023.03;;;12.46;100.00
55032;BME280;40928;51.076;7.950;2023-06-10T04:02:48;97021.16;;;12.47;100.00
55032;BME280;40928;51.076;7.950;2023-06-10T04:05:31;97017.19;;;12.49;100.00
55032;BME280;40928;51.076;7.950;2023-06-10T04:07:57;97018.25;;;12.48;100.00
55032;BME280;40928;51.076;7.950;2023-06-10T04:10:22;97010.78;;;12.51;100.00
55032;BME280;40928;51.076;7.950;2023-06-10T04:12:49;97016.44;;;12.54;100.00
55032;BME280;40928;51.076;7.950;2023-06-10T04:15:14;97020.22;;;12.58;100.00
55032;BME280;40928;51.076;7.950;2023-06-10T04:17:41;97019.97;;;12.60;100.00
55032;BME280;40928;51.076;7.950;2023-06-10T04:20:07;97016.16;;;12.56;100.00
55032;BME280;40928;51.076;7.950;2023-06-10T04:22:35;97027.00;;;12.66;100.00
55032;BME280;40928;51.076;7.950;2023-06-10T04:25:03;97025.69;;;12.69;100.00
55032;BME280;40928;51.076;7.950;2023-06-10T04:27:29;97028.09;;;12.70;100.00
55032;BME280;40928;51.076;7.950;2023-06-10T04:29:57;97029.72;;;12.71;100.00
55032;BME280;40928;51.076;7.950;2023-06-10T04:32:23;97031.41;;;12.77;100.00
55032;BME280;40928;51.076;7.950;2023-06-10T04:34:49;97037.63;;;12.83;100.00
55032;BME280;40928;51.076;7.950;2023-06-10T04:37:17;97033.63;;;12.86;100.00
55032;BME280;40928;51.076;7.950;2023-06-10T04:39:43;97032.88;;;12.90;100.00
55032;BME280;40928;51.076;7.950;2023-06-10T04:42:09;97037.22;;;12.97;100.00
55032;BME280;40928;51.076;7.950;2023-06-10T04:44:37;97038.06;;;13.02;100.00
55032;BME280;40928;51.076;7.950;2023-06-10T04:47:03;97043.22;;;13.09;100.00
55032;BME280;40928;51.076;7.950;2023-06-10T04:49:29;97041.16;;;13.16;100.00
55032;BME280;40928;51.076;7.950;2023-06-10T04:51:55;97037.97;;;13.19;100.00
55032;BME280;40928;51.076;7.950;2023-06-10T04:54:21;97035.84;;;13.27;100.00
55032;BME280;40928;51.076;7.950;2023-06-10T04:56:48;97035.63;;;13.33;100.00
55032;BME280;40928;51.076;7.950;2023-06-10T04:59:16;97038.97;;;13.40;100.00
55032;BME280;40928;51.076;7.950;2023-06-10T05:01:46;97040.34;;;13.48;100.00
55032;BME280;40928;51.076;7.950;2023-06-10T05:04:12;97036.38;;;13.56;100.00
55032;BME280;40928;51.076;7.950;2023-06-10T05:06:38;97036.72;;;13.65;100.00
55032;BME280;40928;51.076;7.950;2023-06-10T05:09:06;97027.09;;;13.74;100.00
55032;BME280;40928;51.076;7.950;2023-06-10T05:11:33;97035.75;;;13.81;100.00
55032;BME280;40928;51.076;7.950;2023-06-10T05:13:58;97033.63;;;13.89;100.00
55032;BME280;40928;51.076;7.950;2023-06-10T05:16:24;97043.06;;;13.96;100.00
55032;BME280;40928;51.076;7.950;2023-06-10T05:18:50;97035.31;;;14.05;100.00
55032;BME280;40928;51.076;7.950;2023-06-10T05:21:17;97038.31;;;14.14;100.00
55032;BME280;40928;51.076;7.950;2023-06-10T05:23:47;97037.03;;;14.22;100.00
55032;BME280;40928;51.076;7.950;2023-06-10T05:26:14;97038.16;;;14.31;100.00
55032;BME280;40928;51.076;7.950;2023-06-10T05:28:43;97038.69;;;14.38;100.00
55032;BME280;40928;51.076;7.950;2023-06-10T05:31:09;97039.28;;;14.45;100.00
55032;BME280;40928;51.076;7.950;2023-06-10T05:33:35;97048.44;;;14.55;100.00
55032;BME280;40928;51.076;7.950;2023-06-10T05:36:00;97036.09;;;14.64;100.00
55032;BME280;40928;51.076;7.950;2023-06-10T05:38:26;97036.97;;;14.75;100.00
55032;BME280;40928;51.076;7.950;2023-06-10T05:40:54;97039.94;;;14.84;100.00
55032;BME280;40928;51.076;7.950;2023-06-10T05:43:22;97041.03;;;14.93;100.00
55032;BME280;40928;51.076;7.950;2023-06-10T05:45:48;97039.16;;;15.04;100.00
55032;BME280;40928;51.076;7.950;2023-06-10T05:48:15;97039.44;;;15.13;100.00
55032;BME280;40928;51.076;7.950;2023-06-10T05:50:41;97048.31;;;15.23;100.00
55032;BME280;40928;51.076;7.950;2023-06-10T05:53:17;97043.22;;;15.32;100.00
55032;BME280;40928;51.076;7.950;2023-06-10T05:55:43;97045.38;;;15.46;100.00
55032;BME280;40928;51.076;7.950;2023-06-10T05:58:13;97046.16;;;15.57;100.00
55032;BME280;40928;51.076;7.950;2023-06-10T06:00:39;97047.22;;;15.71;100.00
55032;BME280;40928;51.076;7.950;2023-06-10T06:03:08;97041.28;;;15.84;100.00
55032;BME280;40928;51.076;7.950;2023-06-10T06:05:36;97041.81;;;15.97;100.00
55032;BME280;40928;51.076;7.950;2023-06-10T06:08:04;97038.28;;;16.12;100.00
55032;BME280;40928;51.076;7.950;2023-06-10T06:10:29;97041.75;;;16.23;100.00
55032;BME280;40928;51.076;7.950;2023-06-10T06:12:55;97042.53;;;16.34;100.00
55032;BME280;40928;51.076;7.950;2023-06-10T06:15:24;97036.00;;;16.50;100.00
55032;BME280;40928;51.076;7.950;2023-06-10T06:17:49;97027.31;;;16.58;100.00
55032;BME280;40928;51.076;7.950;2023-06-10T06:20:19;97033.94;;;16.77;100.00
55032;BME280;40928;51.076;7.950;2023-06-10T06:22:45;97040.34;;;16.91;100.00
55032;BME280;40928;51.076;7.950;2023-06-10T06:25:11;97039.19;;;17.08;100.00
55032;BME280;40928;51.076;7.950;2023-06-10T06:27:36;97033.66;;;17.23;100.00
55032;BME280;40928;51.076;7.950;2023-06-10T06:30:07;97038.94;;;17.39;100.00
55032;BME280;40928;51.076;7.950;2023-06-10T06:32:35;97034.81;;;17.52;100.00
55032;BME280;40928;51.076;7.950;2023-06-10T06:35:01;97036.84;;;17.65;100.00
55032;BME280;40928;51.076;7.950;2023-06-10T06:37:26;97036.72;;;17.75;97.34
55032;BME280;40928;51.076;7.950;2023-06-10T06:40:05;97041.19;;;17.90;93.54
55032;BME280;40928;51.076;7.950;2023-06-10T06:42:31;97040.25;;;18.05;93.70
55032;BME280;40928;51.076;7.950;2023-06-10T06:45:02;97034.16;;;18.19;91.10
55032;BME280;40928;51.076;7.950;2023-06-10T06:47:29;97044.28;;;18.32;89.86
55032;BME280;40928;51.076;7.950;2023-06-10T06:49:56;97041.16;;;18.44;88.65
55032;BME280;40928;51.076;7.950;2023-06-10T06:52:22;97049.94;;;18.55;88.96
55032;BME280;40928;51.076;7.950;2023-06-10T06:54:48;97042.81;;;18.64;87.36
55032;BME280;40928;51.076;7.950;2023-06-10T06:57:14;97047.44;;;18.83;86.24
55032;BME280;40928;51.076;7.950;2023-06-10T06:59:41;97049.44;;;18.96;86.15
55032;BME280;40928;51.076;7.950;2023-06-10T07:02:07;97050.38;;;19.06;85.26
55032;BME280;40928;51.076;7.950;2023-06-10T07:04:32;97051.59;;;19.13;84.50
55032;BME280;40928;51.076;7.950;2023-06-10T07:07:04;97053.66;;;19.22;83.59
55032;BME280;40928;51.076;7.950;2023-06-10T07:09:34;97051.00;;;19.36;82.46
55032;BME280;40928;51.076;7.950;2023-06-10T07:11:59;97052.94;;;19.49;81.80
55032;BME280;40928;51.076;7.950;2023-06-10T07:14:26;97051.06;;;19.63;79.29
55032;BME280;40928;51.076;7.950;2023-06-10T07:17:01;97058.84;;;19.84;78.06
55032;BME280;40928;51.076;7.950;2023-06-10T07:19:29;97055.69;;;19.96;77.43
55032;BME280;40928;51.076;7.950;2023-06-10T07:21:57;97065.44;;;20.11;78.71
55032;BME280;40928;51.076;7.950;2023-06-10T07:24:23;97063.06;;;20.23;77.19
55032;BME280;40928;51.076;7.950;2023-06-10T07:26:50;97062.94;;;20.29;76.02
55032;BME280;40928;51.076;7.950;2023-06-10T07:29:15;97066.16;;;20.31;75.22
55032;BME280;40928;51.076;7.950;2023-06-10T07:31:41;97062.84;;;20.34;75.29
55032;BME280;40928;51.076;7.950;2023-06-10T07:34:07;97064.34;;;20.40;75.84
55032;BME280;40928;51.076;7.950;2023-06-10T07:36:33;97054.31;;;20.41;74.92
55032;BME280;40928;51.076;7.950;2023-06-10T07:38:58;97056.09;;;20.45;75.02
55032;BME280;40928;51.076;7.950;2023-06-10T07:41:27;97062.22;;;20.51;75.98
55032;BME280;40928;51.076;7.950;2023-06-10T07:43:53;97059.00;;;20.63;76.73
55032;BME280;40928;51.076;7.950;2023-06-10T07:46:22;97063.22;;;20.83;76.65
55032;BME280;40928;51.076;7.950;2023-06-10T07:48:48;97057.59;;;20.93;73.59
55032;BME280;40928;51.076;7.950;2023-06-10T07:51:20;97057.34;;;21.04;73.46
55032;BME280;40928;51.076;7.950;2023-06-10T07:53:47;97048.34;;;21.17;72.23
55032;BME280;40928;51.076;7.950;2023-06-10T07:56:13;97056.31;;;21.36;71.64
55032;BME280;40928;51.076;7.950;2023-06-10T07:58:38;97055.81;;;21.57;68.19
55032;BME280;40928;51.076;7.950;2023-06-10T08:01:08;97063.78;;;21.76;65.48
55032;BME280;40928;51.076;7.950;2023-06-10T08:03:34;97054.31;;;21.96;66.81
55032;BME280;40928;51.076;7.950;2023-06-10T08:06:01;97061.91;;;22.17;68.60
55032;BME280;40928;51.076;7.950;2023-06-10T08:08:26;97057.34;;;22.35;61.20
55032;BME280;40928;51.076;7.950;2023-06-10T08:10:52;97062.00;;;22.34;61.73
55032;BME280;40928;51.076;7.950;2023-06-10T08:13:18;97057.88;;;22.46;59.57
55032;BME280;40928;51.076;7.950;2023-06-10T08:15:44;97067.69;;;22.56;60.17
55032;BME280;40928;51.076;7.950;2023-06-10T08:18:10;97055.88;;;22.69;59.90
55032;BME280;40928;51.076;7.950;2023-06-10T08:20:37;97055.41;;;22.76;59.99
55032;BME280;40928;51.076;7.950;2023-06-10T08:23:13;97058.28;;;22.97;59.02
55032;BME280;40928;51.076;7.950;2023-06-10T08:25:40;97060.09;;;23.10;58.15
55032;BME280;40928;51.076;7.950;2023-06-10T08:28:09;97050.63;;;23.17;54.27
55032;BME280;40928;51.076;7.950;2023-06-10T08:30:39;97052.75;;;23.29;54.51
55032;BME280;40928;51.076;7.950;2023-06-10T08:33:05;97059.47;;;23.40;53.09
55032;BME280;40928;51.076;7.950;2023-06-10T08:35:31;97050.31;;;23.45;52.82
55032;BME280;40928;51.076;7.950;2023-06-10T08:37:56;97043.72;;;23.54;52.57
55032;BME280;40928;51.076;7.950;2023-06-10T08:40:22;97053.47;;;23.73;52.91
55032;BME280;40928;51.076;7.950;2023-06-10T08:43:07;97057.94;;;23.86;50.66
55032;BME280;40928;51.076;7.950;2023-06-10T08:45:37;97048.31;;;23.98;49.70
55032;BME280;40928;51.076;7.950;2023-06-10T08:48:04;97052.75;;;24.11;49.28
55032;BME280;40928;51.076;7.950;2023-06-10T08:50:36;97053.66;;;24.24;47.76
55032;BME280;40928;51.076;7.950;2023-06-10T08:53:05;97054.56;;;24.37;46.49
55032;BME280;40928;51.076;7.950;2023-06-10T08:55:42;97064.63;;;24.45;46.31
55032;BME280;40928;51.076;7.950;2023-06-10T08:58:15;97059.41;;;24.70;43.75
55032;BME280;40928;51.076;7.950;2023-06-10T09:00:40;97063.41;;;24.64;41.89
55032;BME280;40928;51.076;7.950;2023-06-10T09:03:07;97058.41;;;24.66;43.34
55032;BME280;40928;51.076;7.950;2023-06-10T09:05:37;97058.94;;;24.89;41.69
55032;BME280;40928;51.076;7.950;2023-06-10T09:08:05;97060.41;;;24.87;41.66
55032;BME280;40928;51.076;7.950;2023-06-10T09:10:36;97056.22;;;24.89;41.21
55032;BME280;40928;51.076;7.950;2023-06-10T09:13:07;97046.34;;;24.97;42.04
55032;BME280;40928;51.076;7.950;2023-06-10T09:15:32;97046.75;;;25.08;41.79
55032;BME280;40928;51.076;7.950;2023-06-10T09:18:00;97044.69;;;25.05;42.15
55032;BME280;40928;51.076;7.950;2023-06-10T09:20:25;97054.69;;;25.01;40.62
55032;BME280;40928;51.076;7.950;2023-06-10T09:22:53;97049.63;;;24.90;40.88
55032;BME280;40928;51.076;7.950;2023-06-10T09:25:35;97037.16;;;25.02;40.07
55032;BME280;40928;51.076;7.950;2023-06-10T09:28:04;97044.03;;;25.08;39.70
55032;BME280;40928;51.076;7.950;2023-06-10T09:30:32;97058.16;;;25.31;40.23
55032;BME280;40928;51.076;7.950;2023-06-10T09:33:09;97058.38;;;25.38;38.21
55032;BME280;40928;51.076;7.950;2023-06-10T09:35:48;97052.75;;;25.44;37.01
55032;BME280;40928;51.076;7.950;2023-06-10T09:38:19;97051.53;;;25.53;36.68
55032;BME280;40928;51.076;7.950;2023-06-10T09:40:54;97049.84;;;25.61;37.20
55032;BME280;40928;51.076;7.950;2023-06-10T09:43:38;97030.50;;;25.66;37.58
55032;BME280;40928;51.076;7.950;2023-06-10T09:46:05;97051.41;;;25.96;38.39
55032;BME280;40928;51.076;7.950;2023-06-10T09:48:37;97055.88;;;26.00;37.26
55032;BME280;40928;51.076;7.950;2023-06-10T09:51:09;97056.69;;;26.01;36.85
55032;BME280;40928;51.076;7.950;2023-06-10T09:53:37;97040.94;;;25.98;37.57
55032;BME280;40928;51.076;7.950;2023-06-10T09:56:04;97044.63;;;26.14;37.89
55032;BME280;40928;51.076;7.950;2023-06-10T09:58:39;97038.84;;;26.28;36.46
55032;BME280;40928;51.076;7.950;2023-06-10T10:01:09;97040.19;;;26.35;37.18
55032;BME280;40928;51.076;7.950;2023-06-10T10:03:49;97037.22;;;26.52;36.00
55032;BME280;40928;51.076;7.950;2023-06-10T10:06:17;97036.31;;;26.60;34.08
55032;BME280;40928;51.076;7.950;2023-06-10T10:08:44;97039.84;;;26.61;34.66
55032;BME280;40928;51.076;7.950;2023-06-10T10:11:10;97047.97;;;26.45;35.11
55032;BME280;40928;51.076;7.950;2023-06-10T10:13:37;97040.75;;;26.40;35.35
55032;BME280;40928;51.076;7.950;2023-06-10T10:16:11;97040.31;;;26.38;34.71
55032;BME280;40928;51.076;7.950;2023-06-10T10:18:40;97043.16;;;26.54;35.59
55032;BME280;40928;51.076;7.950;2023-06-10T10:21:11;97044.97;;;26.75;34.81
55032;BME280;40928;51.076;7.950;2023-06-10T10:23:51;97035.75;;;26.80;33.69
55032;BME280;40928;51.076;7.950;2023-06-10T10:26:18;97045.88;;;26.92;34.66
55032;BME280;40928;51.076;7.950;2023-06-10T10:29:14;97036.22;;;27.10;33.04
55032;BME280;40928;51.076;7.950;2023-06-10T10:31:50;97044.16;;;27.28;32.90
55032;BME280;40928;51.076;7.950;2023-06-10T10:34:49;97035.66;;;27.45;33.80
55032;BME280;40928;51.076;7.950;2023-06-10T10:37:20;97044.56;;;27.71;33.14
55032;BME280;40928;51.076;7.950;2023-06-10T10:39:48;97038.56;;;27.81;32.92
55032;BME280;40928;51.076;7.950;2023-06-10T10:42:14;97040.34;;;27.89;33.00
55032;BME280;40928;51.076;7.950;2023-06-10T10:44:41;97041.06;;;27.86;30.99
55032;BME280;40928;51.076;7.950;2023-06-10T10:47:11;97033.69;;;27.74;30.52
55032;BME280;40928;51.076;7.950;2023-06-10T10:49:42;97054.53;;;27.91;32.66
55032;BME280;40928;51.076;7.950;2023-06-10T10:52:12;97044.41;;;27.95;28.42
55032;BME280;40928;51.076;7.950;2023-06-10T10:54:44;97041.59;;;27.92;28.31
55032;BME280;40928;51.076;7.950;2023-06-10T10:57:19;97043.81;;;28.02;29.82
55032;BME280;40928;51.076;7.950;2023-06-10T10:59:56;97040.59;;;27.68;30.87
55032;BME280;40928;51.076;7.950;2023-06-10T11:02:41;97042.38;;;27.76;31.26
55032;BME280;40928;51.076;7.950;2023-06-10T11:05:09;97032.66;;;27.79;30.95
55032;BME280;40928;51.076;7.950;2023-06-10T11:07:37;97037.78;;;27.96;30.42
55032;BME280;40928;51.076;7.950;2023-06-10T11:10:11;97030.00;;;27.83;30.03
55032;BME280;40928;51.076;7.950;2023-06-10T11:15:12;97028.75;;;27.96;31.20
55032;BME280;40928;51.076;7.950;2023-06-10T11:26:29;97027.81;;;28.20;29.33
55032;BME280;40928;51.076;7.950;2023-06-10T11:31:33;97020.03;;;28.22;30.01
55032;BME280;40928;51.076;7.950;2023-06-10T11:34:02;97022.75;;;28.38;30.61
55032;BME280;40928;51.076;7.950;2023-06-10T11:36:37;97013.69;;;28.54;30.20
55032;BME280;40928;51.076;7.950;2023-06-10T11:39:06;97005.94;;;28.76;30.39
55032;BME280;40928;51.076;7.950;2023-06-10T11:41:49;97022.00;;;28.74;30.43
55032;BME280;40928;51.076;7.950;2023-06-10T11:44:18;97023.50;;;28.71;30.49
55032;BME280;40928;51.076;7.950;2023-06-10T11:46:44;97014.31;;;28.47;30.75
55032;BME280;40928;51.076;7.950;2023-06-10T11:49:14;97017.81;;;28.28;30.93
55032;BME280;40928;51.076;7.950;2023-06-10T11:51:41;97016.72;;;28.01;32.36
55032;BME280;40928;51.076;7.950;2023-06-10T11:54:15;97018.38;;;27.73;33.12
55032;BME280;40928;51.076;7.950;2023-06-10T11:56:41;97015.22;;;27.71;33.16
55032;BME280;40928;51.076;7.950;2023-06-10T11:59:07;97012.56;;;27.75;32.62
55032;BME280;40928;51.076;7.950;2023-06-10T12:01:43;97012.72;;;27.66;32.84
55032;BME280;40928;51.076;7.950;2023-06-10T12:04:16;97019.59;;;27.60;32.04
55032;BME280;40928;51.076;7.950;2023-06-10T12:06:51;97017.13;;;27.42;32.68
55032;BME280;40928;51.076;7.950;2023-06-10T12:09:22;97020.22;;;27.25;33.19
55032;BME280;40928;51.076;7.950;2023-06-10T12:12:04;97014.13;;;27.31;33.28
55032;BME280;40928;51.076;7.950;2023-06-10T12:19:58;97005.44;;;27.01;33.45
55032;BME280;40928;51.076;7.950;2023-06-10T12:22:24;97002.19;;;26.83;34.32
55032;BME280;40928;51.076;7.950;2023-06-10T12:25:05;97002.88;;;26.80;34.76
55032;BME280;40928;51.076;7.950;2023-06-10T12:27:34;97008.81;;;26.69;33.52
55032;BME280;40928;51.076;7.950;2023-06-10T12:30:03;97001.84;;;26.59;34.14
55032;BME280;40928;51.076;7.950;2023-06-10T12:32:43;96998.09;;;26.52;34.12
55032;BME280;40928;51.076;7.950;2023-06-10T12:35:19;97001.63;;;26.52;33.73
55032;BME280;40928;51.076;7.950;2023-06-10T12:38:03;96995.44;;;26.68;33.82
55032;BME280;40928;51.076;7.950;2023-06-10T12:40:37;96997.44;;;26.96;33.61
55032;BME280;40928;51.076;7.950;2023-06-10T12:43:10;97004.09;;;27.23;33.45
55032;BME280;40928;51.076;7.950;2023-06-10T12:45:41;97006.59;;;27.28;33.86
55032;BME280;40928;51.076;7.950;2023-06-10T12:48:24;97007.19;;;27.50;33.94
55032;BME280;40928;51.076;7.950;2023-06-10T12:51:00;97001.91;;;27.57;33.38
55032;BME280;40928;51.076;7.950;2023-06-10T12:53:26;97011.13;;;27.65;33.28
55032;BME280;40928;51.076;7.950;2023-06-10T12:55:53;96999.91;;;27.70;33.79
55032;BME280;40928;51.076;7.950;2023-06-10T12:58:20;96995.47;;;27.81;33.87
55032;BME280;40928;51.076;7.950;2023-06-10T13:00:51;96991.50;;;27.95;34.52
55032;BME280;40928;51.076;7.950;2023-06-10T13:03:24;96985.00;;;28.03;33.88
55032;BME280;40928;51.076;7.950;2023-06-10T13:05:50;96983.63;;;28.09;33.44
55032;BME280;40928;51.076;7.950;2023-06-10T13:08:16;96985.22;;;28.10;32.02
55032;BME280;40928;51.076;7.950;2023-06-10T13:10:42;96990.91;;;28.18;32.17
55032;BME280;40928;51.076;7.950;2023-06-10T13:13:08;96989.00;;;28.22;32.55
55032;BME280;40928;51.076;7.950;2023-06-10T13:15:37;96983.19;;;28.23;32.21
55032;BME280;40928;51.076;7.950;2023-06-10T13:18:06;96989.34;;;28.36;32.30
55032;BME280;40928;51.076;7.950;2023-06-10T13:20:34;96984.75;;;28.40;32.28
55032;BME280;40928;51.076;7.950;2023-06-10T13:23:03;96987.94;;;28.26;32.17
55032;BME280;40928;51.076;7.950;2023-06-10T13:25:30;96975.41;;;28.25;32.39
55032;BME280;40928;51.076;7.950;2023-06-10T13:27:59;96979.81;;;28.30;32.07